createdAt,value
2023-01-28T00:01:18.091Z,6.52
2023-01-28T00:03:45.332Z,6.50
2023-01-28T00:06:13.949Z,6.54
2023-01-28T00:08:40.844Z,6.54
2023-01-28T00:11:08.347Z,6.58
2023-01-28T00:13:35.177Z,6.61
2023-01-28T00:16:05.131Z,6.63
2023-01-28T00:18:32.945Z,6.62
2023-01-28T00:21:00.567Z,6.64
2023-01-28T00:23:28.723Z,6.68
2023-01-28T00:25:58.333Z,6.70
2023-01-28T00:28:25.187Z,6.74
2023-01-28T00:30:52.024Z,6.73
2023-01-28T00:33:18.933Z,6.71
2023-01-28T00:35:45.815Z,6.71
2023-01-28T00:38:12.769Z,6.72
2023-01-28T00:40:39.497Z,6.74
2023-01-28T00:43:06.278Z,6.77
2023-01-28T00:45:33.174Z,6.81
2023-01-28T00:47:59.989Z,6.85
2023-01-28T00:50:26.801Z,6.88
2023-01-28T00:52:53.567Z,6.91
2023-01-28T00:55:20.277Z,6.94
2023-01-28T00:57:47.137Z,6.96
2023-01-28T01:00:14.193Z,6.99
2023-01-28T01:02:42.063Z,6.98
2023-01-28T01:05:09.097Z,7.01
2023-01-28T01:07:41.780Z,7.02
2023-01-28T01:10:10.983Z,7.03
2023-01-28T01:12:37.977Z,7.08
2023-01-28T01:15:09.116Z,7.08
2023-01-28T01:17:37.922Z,7.05
2023-01-28T01:20:05.805Z,7.00
2023-01-28T01:22:34.367Z,6.96
2023-01-28T01:25:01.533Z,6.98
2023-01-28T01:27:28.317Z,7.00
2023-01-28T01:29:55.220Z,7.04
2023-01-28T01:32:22.550Z,7.06
2023-01-28T01:34:49.706Z,7.04
2023-01-28T01:37:16.509Z,7.05
2023-01-28T01:39:43.273Z,7.07
2023-01-28T01:42:11.491Z,7.11
2023-01-28T01:44:47.582Z,7.13
2023-01-28T01:47:16.517Z,7.15
2023-01-28T01:49:43.233Z,7.17
2023-01-28T01:52:13.282Z,7.17
2023-01-28T01:54:42.575Z,7.20
2023-01-28T01:57:16.635Z,7.18
2023-01-28T01:59:43.773Z,7.22
2023-01-28T02:02:11.450Z,7.22
2023-01-28T02:04:40.547Z,7.15
2023-01-28T02:07:08.896Z,7.07
2023-01-28T02:09:36.618Z,7.04
2023-01-28T02:12:07.462Z,7.08
2023-01-28T02:14:36.224Z,7.08
2023-01-28T02:17:03.475Z,7.07
2023-01-28T02:19:34.188Z,7.07
2023-01-28T02:22:04.344Z,7.07
2023-01-28T02:24:31.371Z,7.09
2023-01-28T02:26:58.358Z,7.09
2023-01-28T02:29:34.477Z,7.07
2023-01-28T02:32:02.430Z,7.06
2023-01-28T02:34:37.771Z,7.09
2023-01-28T02:37:07.961Z,7.09
2023-01-28T02:39:37.041Z,7.11
2023-01-28T02:42:06.950Z,7.15
2023-01-28T02:44:33.787Z,7.17
2023-01-28T02:47:10.892Z,7.15
2023-01-28T02:49:41.784Z,7.12
2023-01-28T02:52:18.631Z,7.12
2023-01-28T02:54:45.745Z,7.11
2023-01-28T02:57:12.752Z,7.07
2023-01-28T02:59:41.842Z,7.06
2023-01-28T03:02:17.773Z,7.09
2023-01-28T03:04:47.761Z,7.11
2023-01-28T03:07:15.586Z,7.10
2023-01-28T03:09:43.663Z,7.08
2023-01-28T03:12:22.424Z,7.07
2023-01-28T03:15:00.550Z,7.09
2023-01-28T03:17:42.401Z,7.07
2023-01-28T03:20:19.487Z,7.07
2023-01-28T03:22:58.098Z,7.07
2023-01-28T03:25:36.972Z,7.05
2023-01-28T03:28:15.598Z,7.04
2023-01-28T03:30:56.209Z,7.04
2023-01-28T03:33:33.374Z,7.04
2023-01-28T03:36:11.237Z,7.03
2023-01-28T03:38:43.034Z,7.02
2023-01-28T03:41:10.941Z,7.05
2023-01-28T03:43:38.022Z,7.01
2023-01-28T03:46:06.616Z,7.03
2023-01-28T03:48:33.635Z,6.99
2023-01-28T03:51:01.520Z,6.95
2023-01-28T03:53:28.662Z,6.92
2023-01-28T03:55:56.963Z,6.92
2023-01-28T03:58:27.494Z,6.91
2023-01-28T04:00:54.757Z,6.91
2023-01-28T04:03:22.015Z,6.92
2023-01-28T04:05:58.693Z,6.88
2023-01-28T04:08:25.751Z,6.90
2023-01-28T04:10:53.506Z,6.90
2023-01-28T04:13:20.442Z,6.89
2023-01-28T04:15:47.497Z,6.87
2023-01-28T04:18:14.260Z,6.87
2023-01-28T04:20:41.108Z,6.87
2023-01-28T04:23:08.877Z,6.87
2023-01-28T04:25:35.845Z,6.87
2023-01-28T04:28:02.679Z,6.87
2023-01-28T04:30:29.614Z,6.87
2023-01-28T04:32:56.579Z,6.86
2023-01-28T04:35:23.503Z,6.86
2023-01-28T04:37:50.357Z,6.84
2023-01-28T04:40:17.399Z,6.83
2023-01-28T04:42:52.906Z,6.84
2023-01-28T04:45:19.677Z,6.84
2023-01-28T04:47:46.462Z,6.82
2023-01-28T04:50:13.431Z,6.81
2023-01-28T04:52:40.418Z,6.79
2023-01-28T04:55:07.770Z,6.78
2023-01-28T04:57:34.588Z,6.77
2023-01-28T05:00:01.341Z,6.77
2023-01-28T05:02:28.191Z,6.78
2023-01-28T05:04:54.956Z,6.79
2023-01-28T05:07:21.699Z,6.74
2023-01-28T05:09:48.422Z,6.73
2023-01-28T05:12:15.155Z,6.71
2023-01-28T05:14:42.063Z,6.71
2023-01-28T05:17:09.682Z,6.71
2023-01-28T05:19:36.526Z,6.70
2023-01-28T05:22:03.271Z,6.70
2023-01-28T05:24:30.268Z,6.69
2023-01-28T05:26:57.582Z,6.70
2023-01-28T05:29:24.319Z,6.71
2023-01-28T05:31:51.187Z,6.70
2023-01-28T05:34:17.942Z,6.71
2023-01-28T05:36:44.827Z,6.72
2023-01-28T05:39:12.724Z,6.70
2023-01-28T05:41:39.631Z,6.71
2023-01-28T05:44:06.408Z,6.71
2023-01-28T05:46:33.196Z,6.70
2023-01-28T05:48:59.944Z,6.72
2023-01-28T05:51:26.802Z,6.66
2023-01-28T05:53:53.522Z,6.67
2023-01-28T05:56:20.253Z,6.67
2023-01-28T05:58:47.019Z,6.68
2023-01-28T06:01:13.796Z,6.69
2023-01-28T06:03:40.525Z,6.70
2023-01-28T06:06:07.379Z,6.71
2023-01-28T06:08:34.124Z,6.75
2023-01-28T06:11:00.896Z,6.77
2023-01-28T06:13:27.633Z,6.77
2023-01-28T06:15:54.596Z,6.75
2023-01-28T06:18:21.326Z,6.77
2023-01-28T06:20:49.438Z,6.78
2023-01-28T06:23:16.206Z,6.76
2023-01-28T06:25:43.006Z,6.78
2023-01-28T06:28:10.151Z,6.77
2023-01-28T06:30:36.944Z,6.75
2023-01-28T06:33:03.683Z,6.76
2023-01-28T06:35:30.416Z,6.77
2023-01-28T06:37:57.125Z,6.77
2023-01-28T06:40:25.185Z,6.76
2023-01-28T06:42:52.001Z,6.75
2023-01-28T06:45:18.748Z,6.73
2023-01-28T06:47:45.602Z,6.74
2023-01-28T06:50:12.408Z,6.75
2023-01-28T06:52:40.066Z,6.77
2023-01-28T06:55:07.248Z,6.79
2023-01-28T06:57:34.107Z,6.80
2023-01-28T07:00:01.611Z,6.81
2023-01-28T07:02:28.385Z,6.85
2023-01-28T07:04:55.234Z,6.84
2023-01-28T07:07:22.026Z,6.86
2023-01-28T07:09:48.810Z,6.87
2023-01-28T07:12:15.967Z,6.90
2023-01-28T07:14:42.824Z,6.92
2023-01-28T07:17:09.666Z,6.91
2023-01-28T07:19:36.620Z,6.94
2023-01-28T07:22:03.787Z,6.94
2023-01-28T07:24:30.980Z,6.93
2023-01-28T07:26:57.791Z,6.94
2023-01-28T07:29:24.578Z,6.96
2023-01-28T07:31:51.444Z,6.96
2023-01-28T07:34:18.364Z,6.96
2023-01-28T07:36:45.317Z,6.97
2023-01-28T07:39:12.085Z,6.93
2023-01-28T07:41:38.923Z,6.92
2023-01-28T07:44:05.842Z,6.93
2023-01-28T07:46:32.917Z,6.93
2023-01-28T07:49:00.197Z,6.94
2023-01-28T07:51:27.015Z,6.97
2023-01-28T07:53:53.926Z,7.02
2023-01-28T07:56:20.879Z,7.02
2023-01-28T07:58:49.986Z,7.04
2023-01-28T08:01:18.626Z,7.03
2023-01-28T08:03:45.453Z,7.03
2023-01-28T08:06:12.472Z,7.04
2023-01-28T08:08:39.352Z,7.06
2023-01-28T08:11:09.177Z,7.07
2023-01-28T08:13:36.198Z,7.07
2023-01-28T08:16:05.831Z,7.09
2023-01-28T08:18:32.664Z,7.11
2023-01-28T08:20:59.698Z,7.13
2023-01-28T08:23:27.193Z,7.09
2023-01-28T08:25:54.277Z,7.12
2023-01-28T08:28:21.351Z,7.11
2023-01-28T08:30:48.280Z,7.10
2023-01-28T08:33:15.636Z,7.11
2023-01-28T08:35:42.582Z,7.12
2023-01-28T08:38:10.841Z,7.10
2023-01-28T08:40:37.915Z,7.11
2023-01-28T08:43:05.211Z,7.13
2023-01-28T08:45:32.306Z,7.15
2023-01-28T08:48:03.285Z,7.15
2023-01-28T08:50:32.988Z,7.17
2023-01-28T08:53:01.655Z,7.19
2023-01-28T08:55:29.228Z,7.22
2023-01-28T08:57:58.349Z,7.27
2023-01-28T09:00:25.540Z,7.29
2023-01-28T09:02:53.499Z,7.34
2023-01-28T09:05:21.776Z,7.37
2023-01-28T09:07:48.761Z,7.37
2023-01-28T09:10:16.986Z,7.39
2023-01-28T09:12:44.530Z,7.41
2023-01-28T09:15:12.126Z,7.39
2023-01-28T09:17:39.467Z,7.41
2023-01-28T09:20:06.925Z,7.39
2023-01-28T09:22:33.798Z,7.40
2023-01-28T09:25:00.589Z,7.43
2023-01-28T09:27:27.471Z,7.45
2023-01-28T09:29:54.255Z,7.44
2023-01-28T09:32:21.479Z,7.45
2023-01-28T09:34:48.380Z,7.47
2023-01-28T09:37:15.747Z,7.47
2023-01-28T09:39:42.956Z,7.50
2023-01-28T09:42:19.769Z,7.52
2023-01-28T09:44:52.126Z,7.55
2023-01-28T09:47:24.594Z,7.59
2023-01-28T09:49:53.821Z,7.62
2023-01-28T09:52:23.345Z,7.68
2023-01-28T09:55:09.156Z,7.70
2023-01-28T09:57:42.067Z,7.72
2023-01-28T10:00:15.398Z,7.77
2023-01-28T10:02:44.017Z,7.80
2023-01-28T10:05:24.887Z,7.82
2023-01-28T10:07:53.266Z,7.84
2023-01-28T10:10:23.022Z,7.87
2023-01-28T10:12:57.241Z,7.93
2023-01-28T10:15:27.610Z,7.97
2023-01-28T10:18:15.950Z,7.99
2023-01-28T10:20:47.995Z,8.01
2023-01-28T10:23:20.442Z,8.02
2023-01-28T10:25:50.519Z,8.05
2023-01-28T10:28:20.540Z,8.06
2023-01-28T10:30:48.069Z,8.10
2023-01-28T10:33:16.379Z,8.09
2023-01-28T10:35:44.940Z,8.12
2023-01-28T10:38:16.556Z,8.11
2023-01-28T10:40:43.866Z,8.13
2023-01-28T10:43:11.042Z,8.13
2023-01-28T10:45:42.919Z,8.18
2023-01-28T10:48:29.685Z,8.22
2023-01-28T10:50:59.837Z,8.24
2023-01-28T10:53:36.299Z,8.28
2023-01-28T10:56:04.691Z,8.29
2023-01-28T10:58:33.971Z,8.32
2023-01-28T11:01:02.145Z,8.34
2023-01-28T11:03:31.007Z,8.36
2023-01-28T11:05:59.202Z,8.42
2023-01-28T11:08:27.108Z,8.45
2023-01-28T11:10:54.627Z,8.48
2023-01-28T11:13:21.689Z,8.53
2023-01-28T11:15:48.744Z,8.56
2023-01-28T11:18:18.782Z,8.60
2023-01-28T11:20:51.237Z,8.63
2023-01-28T11:23:19.858Z,8.65
2023-01-28T11:25:47.071Z,8.68
2023-01-28T11:28:22.198Z,8.71
2023-01-28T11:30:52.653Z,8.76
2023-01-28T11:33:21.858Z,8.77
2023-01-28T11:35:57.067Z,8.79
2023-01-28T11:38:25.849Z,8.83
2023-01-28T11:40:53.628Z,8.92
2023-01-28T11:43:23.507Z,8.95
2023-01-28T11:45:59.442Z,8.98
2023-01-28T11:48:35.459Z,9.01
2023-01-28T11:51:03.610Z,9.04
2023-01-28T11:53:40.702Z,9.07
2023-01-28T11:56:07.839Z,9.05
2023-01-28T11:58:35.779Z,9.05
2023-01-28T12:01:12.504Z,9.07
2023-01-28T12:03:41.059Z,9.08
2023-01-28T12:06:17.391Z,9.09
2023-01-28T12:08:49.249Z,9.09
2023-01-28T12:11:19.272Z,9.11
2023-01-28T12:13:46.225Z,9.11
2023-01-28T12:16:24.983Z,9.12
2023-01-28T12:19:01.434Z,9.12
2023-01-28T12:21:37.031Z,9.15
2023-01-28T12:24:05.122Z,9.17
2023-01-28T12:26:32.149Z,9.15
2023-01-28T12:29:01.413Z,9.18
2023-01-28T12:31:37.650Z,9.22
2023-01-28T12:34:13.428Z,9.26
2023-01-28T12:36:47.323Z,9.26
2023-01-28T12:39:21.172Z,9.30
2023-01-28T12:41:52.289Z,9.32
2023-01-28T12:44:22.650Z,9.33
2023-01-28T12:46:52.701Z,9.34
2023-01-28T12:49:23.233Z,9.34
2023-01-28T12:51:57.828Z,9.37
2023-01-28T12:54:32.490Z,9.54
2023-01-28T12:57:00.463Z,9.63
2023-01-28T12:59:29.541Z,9.71
2023-01-28T13:02:02.233Z,9.71
2023-01-28T13:04:38.918Z,9.67
2023-01-28T13:07:13.453Z,9.67
2023-01-28T13:09:45.172Z,9.68
2023-01-28T13:12:13.823Z,9.64
2023-01-28T13:14:41.429Z,9.62
2023-01-28T13:17:10.383Z,9.61
2023-01-28T13:19:40.063Z,9.59
2023-01-28T13:22:17.643Z,9.57
2023-01-28T13:24:49.309Z,9.53
2023-01-28T13:27:22.883Z,9.50
2023-01-28T13:30:02.598Z,9.51
2023-01-28T13:32:32.227Z,9.54
2023-01-28T13:35:02.195Z,9.51
2023-01-28T13:37:34.165Z,9.49
2023-01-28T13:40:01.143Z,9.47
2023-01-28T13:42:30.185Z,9.47
2023-01-28T13:45:09.175Z,9.51
2023-01-28T13:47:37.433Z,9.51
2023-01-28T13:50:14.009Z,9.54
2023-01-28T13:52:51.116Z,9.54
2023-01-28T13:55:41.371Z,9.54
2023-01-28T13:58:17.588Z,9.52
2023-01-28T14:00:51.570Z,9.49
2023-01-28T14:03:27.468Z,9.53
2023-01-28T14:05:54.449Z,9.55
2023-01-28T14:08:24.405Z,9.52
2023-01-28T14:10:59.584Z,9.54
2023-01-28T14:13:35.634Z,9.54
2023-01-28T14:16:09.676Z,9.56
2023-01-28T14:18:39.557Z,9.57
2023-01-28T14:21:15.449Z,9.60
2023-01-28T14:23:48.471Z,9.64
2023-01-28T14:26:24.471Z,9.63
2023-01-28T14:29:00.377Z,9.64
2023-01-28T14:31:29.144Z,9.62
2023-01-28T14:33:58.988Z,9.61
2023-01-28T14:36:26.070Z,9.60
2023-01-28T14:38:57.473Z,9.61
2023-01-28T14:41:27.011Z,9.61
2023-01-28T14:43:55.293Z,9.57
2023-01-28T14:46:22.305Z,9.58
2023-01-28T14:48:58.445Z,9.55
2023-01-28T14:51:40.478Z,9.57
2023-01-28T14:54:16.592Z,9.56
2023-01-28T14:56:43.604Z,9.56
2023-01-28T14:59:19.376Z,9.55
2023-01-28T15:01:47.645Z,9.54
2023-01-28T15:04:24.428Z,9.57
2023-01-28T15:06:51.995Z,9.54
2023-01-28T15:09:18.923Z,9.51
2023-01-28T15:11:47.958Z,9.50
2023-01-28T15:14:20.294Z,9.47
2023-01-28T15:16:48.563Z,9.47
2023-01-28T15:19:16.177Z,9.47
2023-01-28T15:21:44.948Z,9.43
2023-01-28T15:24:16.434Z,9.41
2023-01-28T15:26:47.255Z,9.39
2023-01-28T15:29:23.438Z,9.38
2023-01-28T15:31:51.928Z,9.37
2023-01-28T15:34:20.210Z,9.34
2023-01-28T15:36:48.081Z,9.34
2023-01-28T15:39:16.417Z,9.33
2023-01-28T15:41:47.369Z,9.32
2023-01-28T15:44:29.343Z,9.30
2023-01-28T15:46:58.588Z,9.26
2023-01-28T15:49:28.156Z,9.26
2023-01-28T15:51:55.171Z,9.24
2023-01-28T15:54:23.463Z,9.27
2023-01-28T15:56:51.924Z,9.27
2023-01-28T15:59:24.774Z,9.26
2023-01-28T16:01:53.948Z,9.23
2023-01-28T16:04:25.398Z,9.24
2023-01-28T16:06:52.889Z,9.21
2023-01-28T16:09:23.152Z,9.19
2023-01-28T16:11:50.084Z,9.20
2023-01-28T16:14:22.725Z,9.16
2023-01-28T16:16:49.652Z,9.13
2023-01-28T16:19:23.128Z,9.10
2023-01-28T16:21:49.918Z,9.09
2023-01-28T16:24:25.736Z,9.11
2023-01-28T16:27:02.779Z,9.10
2023-01-28T16:29:31.199Z,9.11
2023-01-28T16:32:00.163Z,9.08
2023-01-28T16:34:28.353Z,9.07
2023-01-28T16:37:02.593Z,9.02
2023-01-28T16:39:31.008Z,8.98
2023-01-28T16:41:58.755Z,8.97
2023-01-28T16:44:25.637Z,8.99
2023-01-28T16:46:52.606Z,8.96
2023-01-28T16:49:20.128Z,8.95
2023-01-28T16:51:47.005Z,8.96
2023-01-28T16:54:16.311Z,8.92
2023-01-28T16:56:46.456Z,8.92
2023-01-28T16:59:15.196Z,8.90
2023-01-28T17:01:42.452Z,8.89
2023-01-28T17:04:12.219Z,8.87
2023-01-28T17:06:42.304Z,8.88
2023-01-28T17:09:09.669Z,8.86
2023-01-28T17:11:39.720Z,8.85
2023-01-28T17:14:06.850Z,8.84
2023-01-28T17:16:33.742Z,8.84
2023-01-28T17:19:01.048Z,8.84
2023-01-28T17:21:27.934Z,8.83
2023-01-28T17:23:59.375Z,8.84
2023-01-28T17:26:26.584Z,8.84
2023-01-28T17:28:53.793Z,8.82
2023-01-28T17:31:21.210Z,8.80
2023-01-28T17:33:48.167Z,8.79
2023-01-28T17:36:14.888Z,8.77
2023-01-28T17:38:44.813Z,8.77
2023-01-28T17:41:12.755Z,8.75
2023-01-28T17:43:39.533Z,8.76
2023-01-28T17:46:15.515Z,8.78
2023-01-28T17:48:44.081Z,8.79
2023-01-28T17:51:11.145Z,8.81
2023-01-28T17:53:38.040Z,8.79
2023-01-28T17:56:05.088Z,8.79
2023-01-28T17:58:31.854Z,8.77
2023-01-28T18:00:58.800Z,8.75
2023-01-28T18:03:25.641Z,8.75
2023-01-28T18:05:59.852Z,8.74
2023-01-28T18:08:26.840Z,8.70
2023-01-28T18:10:55.395Z,8.67
2023-01-28T18:13:22.742Z,8.62
2023-01-28T18:15:49.573Z,8.62
2023-01-28T18:18:16.385Z,8.59
2023-01-28T18:20:43.197Z,8.63
2023-01-28T18:23:10.041Z,8.58
2023-01-28T18:25:36.907Z,8.57
2023-01-28T18:28:05.476Z,8.54
2023-01-28T18:30:32.259Z,8.54
2023-01-28T18:32:59.073Z,8.54
2023-01-28T18:35:25.817Z,8.55
2023-01-28T18:37:52.633Z,8.55
2023-01-28T18:40:19.709Z,8.54
2023-01-28T18:42:46.568Z,8.54
2023-01-28T18:45:13.565Z,8.55
2023-01-28T18:47:41.705Z,8.59
2023-01-28T18:50:09.193Z,8.57
2023-01-28T18:52:36.106Z,8.56
2023-01-28T18:55:03.531Z,8.54
2023-01-28T18:57:30.349Z,8.51
2023-01-28T18:59:57.148Z,8.50
2023-01-28T19:02:24.129Z,8.50
2023-01-28T19:04:50.999Z,8.53
2023-01-28T19:07:17.708Z,8.51
2023-01-28T19:09:44.490Z,8.48
2023-01-28T19:12:11.507Z,8.48
2023-01-28T19:14:38.528Z,8.47
2023-01-28T19:17:05.241Z,8.47
2023-01-28T19:19:32.059Z,8.48
2023-01-28T19:21:58.859Z,8.46
2023-01-28T19:24:25.762Z,8.45
2023-01-28T19:26:52.665Z,8.44
2023-01-28T19:29:19.909Z,8.45
2023-01-28T19:31:49.324Z,8.43
2023-01-28T19:34:16.760Z,8.45
2023-01-28T19:36:43.621Z,8.45
2023-01-28T19:39:11.727Z,8.48
2023-01-28T19:41:38.604Z,8.49
2023-01-28T19:44:05.955Z,8.47
2023-01-28T19:46:33.279Z,8.48
2023-01-28T19:49:08.868Z,8.47
2023-01-28T19:51:35.735Z,8.45
2023-01-28T19:54:02.498Z,8.47
2023-01-28T19:56:30.228Z,8.47
2023-01-28T19:58:57.029Z,8.46
2023-01-28T20:01:27.882Z,8.44
2023-01-28T20:03:59.017Z,8.42
2023-01-28T20:06:27.891Z,8.42
2023-01-28T20:08:56.059Z,8.41
2023-01-28T20:11:23.408Z,8.42
2023-01-28T20:13:52.028Z,8.42
2023-01-28T20:16:21.702Z,8.43
2023-01-28T20:18:50.674Z,8.42
2023-01-28T20:21:19.047Z,8.42
2023-01-28T20:23:46.485Z,8.42
2023-01-28T20:26:13.244Z,8.41
2023-01-28T20:28:41.798Z,8.40
2023-01-28T20:31:09.689Z,8.41
2023-01-28T20:33:36.775Z,8.36
2023-01-28T20:36:04.645Z,8.27
2023-01-28T20:38:34.329Z,8.27
2023-01-28T20:41:04.834Z,8.28
2023-01-28T20:43:33.144Z,8.31
2023-01-28T20:46:03.920Z,8.31
2023-01-28T20:48:30.825Z,8.30
2023-01-28T20:50:57.540Z,8.30
2023-01-28T20:53:24.328Z,8.31
2023-01-28T20:56:00.408Z,8.33
2023-01-28T20:58:27.192Z,8.35
2023-01-28T21:00:54.094Z,8.35
2023-01-28T21:03:21.415Z,8.36
2023-01-28T21:05:48.489Z,8.37
2023-01-28T21:08:15.645Z,8.38
2023-01-28T21:10:42.835Z,8.40
2023-01-28T21:13:10.183Z,8.38
2023-01-28T21:15:37.289Z,8.38
2023-01-28T21:18:04.408Z,8.39
2023-01-28T21:20:31.665Z,8.40
2023-01-28T21:22:58.748Z,8.41
2023-01-28T21:25:26.919Z,8.43
2023-01-28T21:27:54.211Z,8.43
2023-01-28T21:30:21.003Z,8.42
2023-01-28T21:32:47.699Z,8.41
2023-01-28T21:35:14.480Z,8.42
2023-01-28T21:37:45.989Z,8.42
2023-01-28T21:40:12.923Z,8.42
2023-01-28T21:42:39.825Z,8.41
2023-01-28T21:45:08.157Z,8.39
2023-01-28T21:47:35.048Z,8.39
2023-01-28T21:50:01.818Z,8.39
2023-01-28T21:52:28.540Z,8.40
2023-01-28T21:54:55.228Z,8.39
2023-01-28T21:57:21.996Z,8.38
2023-01-28T21:59:48.729Z,8.40
2023-01-28T22:02:16.069Z,8.42
2023-01-28T22:04:43.813Z,8.43
2023-01-28T22:07:12.267Z,8.44
2023-01-28T22:09:39.407Z,8.43
2023-01-28T22:12:08.184Z,8.42
2023-01-28T22:14:35.534Z,8.41
2023-01-28T22:17:02.383Z,8.40
2023-01-28T22:19:29.209Z,8.39
2023-01-28T22:21:55.902Z,8.40
2023-01-28T22:24:24.787Z,8.42
2023-01-28T22:26:52.496Z,8.43
2023-01-28T22:29:20.172Z,8.44
2023-01-28T22:31:48.304Z,8.45
2023-01-28T22:34:15.320Z,8.47
2023-01-28T22:36:42.333Z,8.48
2023-01-28T22:39:12.552Z,8.46
2023-01-28T22:41:39.683Z,8.46
2023-01-28T22:44:06.544Z,8.47
2023-01-28T22:46:34.169Z,8.46
2023-01-28T22:49:01.404Z,8.45
2023-01-28T22:51:30.438Z,8.44
2023-01-28T22:53:57.440Z,8.40
2023-01-28T22:56:25.313Z,8.41
2023-01-28T22:58:54.912Z,8.43
2023-01-28T23:01:21.742Z,8.43
2023-01-28T23:03:49.842Z,8.41
2023-01-28T23:06:17.880Z,8.41
2023-01-28T23:08:44.781Z,8.38
2023-01-28T23:11:15.623Z,8.32
2023-01-28T23:13:53.187Z,8.32
2023-01-28T23:16:29.301Z,8.35
2023-01-28T23:19:05.530Z,8.38
2023-01-28T23:21:42.233Z,8.41
2023-01-28T23:24:21.364Z,8.41
2023-01-28T23:26:50.607Z,8.44
2023-01-28T23:29:17.686Z,8.49
2023-01-28T23:31:47.031Z,8.46
2023-01-28T23:34:15.093Z,8.44
2023-01-28T23:36:42.095Z,8.41
2023-01-28T23:39:08.919Z,8.38
2023-01-28T23:41:35.688Z,8.38
2023-01-28T23:44:03.050Z,8.38
2023-01-28T23:46:39.058Z,8.38
2023-01-28T23:49:08.450Z,8.37
2023-01-28T23:51:35.313Z,8.39
2023-01-28T23:54:02.470Z,8.41
2023-01-28T23:56:29.173Z,8.42
2023-01-28T23:58:56.732Z,8.42
